createdAt,value
2019-04-01T00:00:06.727Z,34.60
2019-04-01T00:00:48.924Z,36.63
2019-04-01T00:01:27.668Z,35.90
2019-04-01T00:02:05.161Z,35.03
2019-04-01T00:02:41.048Z,32.10
2019-04-01T00:03:16.501Z,33.43
2019-04-01T00:03:52.403Z,36.27
2019-04-01T00:04:27.881Z,34.10
2019-04-01T00:05:03.648Z,37.67
2019-04-01T00:05:39.080Z,35.53
2019-04-01T00:06:14.513Z,32.83
2019-04-01T00:06:50.388Z,34.03
2019-04-01T00:07:26.356Z,37.70
2019-04-01T00:08:01.771Z,31.17
2019-04-01T00:08:37.519Z,33.53
2019-04-01T00:09:12.950Z,36.20
2019-04-01T00:09:48.399Z,32.50
2019-04-01T00:10:23.815Z,33.83
2019-04-01T00:10:59.247Z,36.00
2019-04-01T00:11:34.994Z,32.87
2019-04-01T00:12:10.844Z,32.67
2019-04-01T00:12:46.270Z,35.00
2019-04-01T00:13:22.107Z,35.00
2019-04-01T00:13:57.513Z,34.87
2019-04-01T00:14:32.961Z,37.47
2019-04-01T00:15:08.529Z,31.37
2019-04-01T00:15:44.063Z,32.03
2019-04-01T00:16:19.593Z,36.13
2019-04-01T00:16:55.032Z,33.10
2019-04-01T00:17:30.479Z,37.53
2019-04-01T00:18:06.260Z,34.17
2019-04-01T00:18:41.696Z,33.90
2019-04-01T00:19:17.171Z,35.83
2019-04-01T00:19:52.605Z,34.13
2019-04-01T00:20:28.093Z,34.27
2019-04-01T00:21:03.853Z,30.43
2019-04-01T00:21:39.410Z,36.77
2019-04-01T00:22:14.843Z,35.73
2019-04-01T00:22:50.486Z,36.20
2019-04-01T00:23:26.139Z,37.07
2019-04-01T00:24:01.608Z,36.03
2019-04-01T00:24:37.145Z,37.90
2019-04-01T00:25:12.605Z,33.47
2019-04-01T00:25:48.037Z,36.03
2019-04-01T00:26:23.461Z,34.93
2019-04-01T00:26:59.223Z,31.33
2019-04-01T00:27:34.740Z,37.53
2019-04-01T00:28:10.180Z,31.47
2019-04-01T00:28:45.623Z,33.90
2019-04-01T00:29:21.040Z,34.27
2019-04-01T00:29:56.463Z,34.67
2019-04-01T00:30:31.920Z,34.40
2019-04-01T00:31:07.325Z,33.93
2019-04-01T00:31:42.764Z,33.93
2019-04-01T00:32:18.300Z,36.17
2019-04-01T00:32:53.716Z,36.90
2019-04-01T00:33:29.227Z,38.30
2019-04-01T00:34:05.062Z,38.00
2019-04-01T00:34:40.520Z,37.00
2019-04-01T00:35:16.014Z,34.53
2019-04-01T00:35:51.437Z,36.37
2019-04-01T00:36:27.198Z,34.83
2019-04-01T00:37:02.969Z,35.40
2019-04-01T00:37:38.395Z,36.10
2019-04-01T00:38:14.129Z,34.37
2019-04-01T00:38:49.608Z,38.70
2019-04-01T00:39:25.023Z,35.60
2019-04-01T00:40:00.901Z,36.40
2019-04-01T00:40:36.687Z,36.63
2019-04-01T00:41:12.227Z,35.33
2019-04-01T00:42:00.800Z,37.57
2019-04-01T00:42:43.832Z,38.60
2019-04-01T00:43:38.231Z,37.00
2019-04-01T00:44:13.687Z,35.23
2019-04-01T00:44:49.115Z,36.53
2019-04-01T00:45:24.703Z,37.50
2019-04-01T00:46:00.158Z,35.73
2019-04-01T00:46:35.566Z,34.07
2019-04-01T00:47:11.001Z,42.40
2019-04-01T00:47:46.433Z,34.83
2019-04-01T00:48:21.954Z,33.60
2019-04-01T00:48:57.398Z,36.17
2019-04-01T00:49:32.797Z,37.23
2019-04-01T00:50:08.217Z,35.33
2019-04-01T00:50:43.979Z,36.40
2019-04-01T00:51:19.590Z,37.00
2019-04-01T00:51:56.377Z,36.97
2019-04-01T00:52:31.792Z,34.53
2019-04-01T00:53:07.203Z,34.60
2019-04-01T00:53:42.716Z,33.13
2019-04-01T00:54:18.396Z,35.97
2019-04-01T00:54:53.819Z,36.57
2019-04-01T00:55:29.365Z,34.60
2019-04-01T00:56:05.206Z,33.27
2019-04-01T00:56:40.732Z,34.40
2019-04-01T00:57:16.207Z,35.77
2019-04-01T00:57:52.027Z,37.67
2019-04-01T00:58:30.373Z,37.37
2019-04-01T00:59:04.565Z,37.00
2019-04-01T00:59:40.022Z,39.43
2019-04-01T01:00:16.141Z,32.00
2019-04-01T01:00:51.681Z,37.50
2019-04-01T01:01:27.529Z,38.03
2019-04-01T01:02:02.945Z,41.03
2019-04-01T01:02:38.784Z,36.03
2019-04-01T01:03:14.587Z,36.13
2019-04-01T01:03:50.009Z,36.70
2019-04-01T01:04:25.438Z,34.70
2019-04-01T01:05:01.217Z,39.97
2019-04-01T01:05:36.811Z,34.77
2019-04-01T01:06:12.387Z,37.30
2019-04-01T01:06:47.825Z,39.07
2019-04-01T01:07:23.248Z,37.50
2019-04-01T01:07:58.697Z,35.57
2019-04-01T01:08:34.111Z,36.50
2019-04-01T01:09:09.546Z,41.83
2019-04-01T01:09:44.976Z,40.27
2019-04-01T01:10:20.403Z,34.53
2019-04-01T01:10:55.847Z,36.60
2019-04-01T01:11:31.580Z,34.43
2019-04-01T01:12:07.000Z,35.10
2019-04-01T01:12:42.645Z,34.43
2019-04-01T01:13:18.061Z,34.70
2019-04-01T01:13:53.835Z,36.57
2019-04-01T01:14:29.364Z,34.67
2019-04-01T01:15:05.586Z,36.93
2019-04-01T01:15:41.026Z,33.83
2019-04-01T01:16:16.504Z,35.73
2019-04-01T01:16:51.931Z,36.20
2019-04-01T01:17:27.368Z,35.40
2019-04-01T01:18:03.110Z,33.03
2019-04-01T01:18:38.539Z,33.37
2019-04-01T01:19:13.970Z,34.50
2019-04-01T01:19:49.395Z,37.23
2019-04-01T01:20:25.136Z,37.57
2019-04-01T01:21:00.575Z,35.53
2019-04-01T01:21:36.881Z,37.50
2019-04-01T01:22:12.471Z,35.80
2019-04-01T01:22:47.930Z,35.13
2019-04-01T01:23:23.455Z,35.83
2019-04-01T01:23:59.297Z,37.57
2019-04-01T01:24:35.062Z,39.63
2019-04-01T01:25:10.847Z,36.63
2019-04-01T01:25:46.303Z,39.10
2019-04-01T01:26:21.754Z,37.60
2019-04-01T01:26:57.687Z,40.10
2019-04-01T01:27:33.138Z,33.83
2019-04-01T01:28:08.675Z,39.57
2019-04-01T01:28:44.117Z,34.73
2019-04-01T01:29:19.633Z,36.43
2019-04-01T01:29:55.351Z,36.57
2019-04-01T01:30:30.794Z,36.27
2019-04-01T01:31:06.224Z,36.30
2019-04-01T01:31:41.715Z,33.97
2019-04-01T01:32:17.451Z,37.30
2019-04-01T01:32:52.904Z,35.33
2019-04-01T01:33:28.310Z,34.87
2019-04-01T01:34:03.731Z,36.47
2019-04-01T01:34:39.442Z,37.07
2019-04-01T01:35:14.917Z,39.03
2019-04-01T01:35:50.617Z,36.17
2019-04-01T01:36:26.351Z,35.00
2019-04-01T01:37:01.770Z,34.17
2019-04-01T01:37:37.193Z,35.80
2019-04-01T01:38:13.012Z,36.47
2019-04-01T01:38:48.875Z,36.43
2019-04-01T01:39:24.667Z,37.40
2019-04-01T01:40:00.397Z,36.17
2019-04-01T01:40:36.086Z,34.87
2019-04-01T01:41:11.976Z,39.30
2019-04-01T01:41:47.444Z,37.77
2019-04-01T01:42:22.954Z,36.47
2019-04-01T01:42:58.723Z,38.83
2019-04-01T01:43:34.146Z,35.73
2019-04-01T01:44:09.591Z,39.03
2019-04-01T01:44:45.054Z,39.50
2019-04-01T01:45:20.459Z,38.10
2019-04-01T01:45:55.898Z,38.93
2019-04-01T01:46:31.374Z,37.70
2019-04-01T01:47:06.796Z,36.87
2019-04-01T01:47:42.273Z,36.87
2019-04-01T01:48:18.307Z,38.67
2019-04-01T01:48:54.045Z,34.00
2019-04-01T01:49:30.009Z,34.33
2019-04-01T01:50:05.994Z,33.70
2019-04-01T01:50:41.449Z,35.87
2019-04-01T01:51:16.929Z,37.83
2019-04-01T01:51:52.650Z,35.67
2019-04-01T01:52:28.069Z,37.43
2019-04-01T01:53:03.487Z,34.40
2019-04-01T01:53:41.635Z,33.50
2019-04-01T01:54:16.441Z,35.67
2019-04-01T01:54:51.958Z,34.90
2019-04-01T01:55:26.134Z,34.90
2019-04-01T01:56:01.313Z,34.37
2019-04-01T01:56:37.051Z,35.70
2019-04-01T01:57:12.494Z,37.50
2019-04-01T01:57:47.914Z,37.07
2019-04-01T01:58:23.324Z,35.07
2019-04-01T01:58:58.737Z,35.03
2019-04-01T01:59:34.163Z,39.43
2019-04-01T02:00:10.162Z,37.47
2019-04-01T02:00:45.602Z,36.20
2019-04-01T02:01:21.006Z,35.10
2019-04-01T02:01:56.505Z,35.43
2019-04-01T02:02:31.947Z,33.37
2019-04-01T02:03:08.053Z,33.80
2019-04-01T02:03:43.501Z,38.17
2019-04-01T02:04:18.922Z,34.03
2019-04-01T02:04:54.349Z,39.40
2019-04-01T02:05:30.103Z,38.67
2019-04-01T02:06:05.509Z,39.37
2019-04-01T02:06:41.263Z,33.30
2019-04-01T02:07:17.406Z,38.13
2019-04-01T02:07:53.272Z,35.70
2019-04-01T02:08:28.688Z,38.40
2019-04-01T02:09:05.436Z,35.37
2019-04-01T02:09:40.875Z,38.53
2019-04-01T02:10:16.305Z,36.40
2019-04-01T02:10:51.707Z,34.50
2019-04-01T02:11:27.137Z,36.33
2019-04-01T02:12:02.801Z,35.53
2019-04-01T02:12:38.294Z,32.20
2019-04-01T02:13:13.715Z,36.53
2019-04-01T02:13:49.121Z,37.67
2019-04-01T02:14:24.552Z,36.40
2019-04-01T02:15:00.386Z,35.73
2019-04-01T02:15:36.608Z,36.07
2019-04-01T02:16:12.046Z,34.47
2019-04-01T02:16:47.470Z,35.73
2019-04-01T02:17:22.921Z,39.13
2019-04-01T02:17:58.466Z,37.07
2019-04-01T02:18:33.879Z,38.63
2019-04-01T02:19:09.303Z,35.63
2019-04-01T02:19:44.727Z,34.67
2019-04-01T02:20:20.162Z,33.50
2019-04-01T02:20:55.588Z,34.03
2019-04-01T02:21:31.029Z,40.97
2019-04-01T02:22:06.467Z,33.60
2019-04-01T02:22:41.899Z,35.27
2019-04-01T02:23:17.333Z,36.17
2019-04-01T02:23:52.824Z,36.87
2019-04-01T02:24:28.242Z,32.90
2019-04-01T02:25:03.859Z,34.50
2019-04-01T02:25:39.388Z,36.07
2019-04-01T02:26:14.819Z,40.43
2019-04-01T02:26:50.268Z,34.23
2019-04-01T02:27:25.698Z,36.87
2019-04-01T02:28:01.209Z,33.97
2019-04-01T02:28:36.727Z,32.17
2019-04-01T02:29:12.177Z,32.40
2019-04-01T02:29:47.611Z,35.33
2019-04-01T02:30:23.045Z,35.87
2019-04-01T02:30:58.445Z,32.10
2019-04-01T02:31:34.512Z,33.63
2019-04-01T02:32:09.980Z,33.13
2019-04-01T02:32:45.544Z,34.57
2019-04-01T02:33:20.955Z,34.47
2019-04-01T02:33:56.388Z,35.30
2019-04-01T02:34:31.805Z,35.33
2019-04-01T02:35:07.417Z,37.13
2019-04-01T02:35:42.854Z,34.13
2019-04-01T02:36:18.578Z,34.37
2019-04-01T02:36:54.072Z,37.03
2019-04-01T02:37:29.855Z,37.30
2019-04-01T02:38:05.264Z,32.83
2019-04-01T02:38:40.701Z,31.47
2019-04-01T02:39:16.179Z,36.13
2019-04-01T02:39:51.581Z,33.70
2019-04-01T02:40:27.097Z,32.37
2019-04-01T02:41:02.959Z,32.17
2019-04-01T02:41:38.719Z,31.37
2019-04-01T02:42:14.629Z,35.80
2019-04-01T02:42:50.089Z,32.93
2019-04-01T02:43:25.618Z,31.00
2019-04-01T02:44:01.028Z,33.13
2019-04-01T02:44:36.918Z,37.33
2019-04-01T02:45:12.459Z,33.23
2019-04-01T02:45:47.858Z,30.87
2019-04-01T02:46:23.303Z,35.03
2019-04-01T02:46:58.707Z,34.67
2019-04-01T02:47:34.165Z,31.60
2019-04-01T02:48:09.605Z,31.80
2019-04-01T02:48:45.063Z,30.13
2019-04-01T02:49:20.468Z,33.90
2019-04-01T02:49:56.236Z,35.83
2019-04-01T02:50:31.673Z,35.10
2019-04-01T02:51:07.091Z,36.00
2019-04-01T02:51:42.857Z,30.67
2019-04-01T02:52:18.279Z,31.37
2019-04-01T02:52:53.714Z,35.07
2019-04-01T02:53:29.436Z,29.37
2019-04-01T02:54:04.858Z,29.27
2019-04-01T02:54:40.309Z,30.43
2019-04-01T02:55:16.289Z,35.33
2019-04-01T02:55:51.717Z,35.53
2019-04-01T02:56:27.142Z,32.97
2019-04-01T02:57:02.580Z,32.33
2019-04-01T02:57:38.024Z,30.10
2019-04-01T02:58:13.609Z,30.57
2019-04-01T02:58:49.136Z,36.57
2019-04-01T02:59:24.591Z,37.63
2019-04-01T03:00:00.033Z,36.07
2019-04-01T03:00:35.450Z,32.83
2019-04-01T03:01:10.887Z,31.37
2019-04-01T03:01:46.417Z,33.03
2019-04-01T03:02:21.842Z,35.17
2019-04-01T03:02:57.304Z,32.83
2019-04-01T03:03:32.725Z,37.67
2019-04-01T03:04:09.066Z,31.47
2019-04-01T03:04:44.843Z,33.33
2019-04-01T03:05:20.277Z,34.97
2019-04-01T03:05:55.693Z,32.57
2019-04-01T03:06:31.112Z,31.53
2019-04-01T03:07:06.878Z,30.83
2019-04-01T03:07:42.322Z,32.00
2019-04-01T03:08:18.222Z,30.07
2019-04-01T03:08:54.029Z,30.97
2019-04-01T03:09:29.529Z,32.63
2019-04-01T03:10:05.138Z,34.93
2019-04-01T03:10:40.616Z,33.30
2019-04-01T03:11:16.035Z,34.10
2019-04-01T03:11:51.456Z,31.73
2019-04-01T03:12:26.860Z,35.57
2019-04-01T03:13:02.406Z,33.70
2019-04-01T03:13:37.825Z,33.13
2019-04-01T03:14:13.366Z,33.70
2019-04-01T03:14:48.791Z,32.93
2019-04-01T03:15:24.206Z,31.20
2019-04-01T03:15:59.731Z,29.57
2019-04-01T03:16:35.251Z,29.60
2019-04-01T03:17:10.994Z,30.07
2019-04-01T03:17:46.826Z,30.47
2019-04-01T03:18:22.307Z,31.83
2019-04-01T03:18:57.813Z,29.83
2019-04-01T03:19:33.577Z,33.83
2019-04-01T03:20:09.202Z,30.83
2019-04-01T03:20:44.692Z,34.27
2019-04-01T03:21:20.624Z,29.77
2019-04-01T03:21:56.403Z,30.33
2019-04-01T03:22:31.927Z,32.53
2019-04-01T03:23:07.361Z,28.73
2019-04-01T03:23:42.829Z,29.43
2019-04-01T03:24:18.246Z,30.00
2019-04-01T03:24:53.680Z,31.50
2019-04-01T03:25:29.401Z,29.70
2019-04-01T03:26:04.831Z,27.80
2019-04-01T03:26:40.377Z,32.83
2019-04-01T03:27:17.431Z,28.67
2019-04-01T03:27:52.951Z,32.33
2019-04-01T03:28:28.398Z,32.73
2019-04-01T03:29:03.839Z,31.97
2019-04-01T03:29:39.273Z,30.77
2019-04-01T03:30:14.792Z,30.67
2019-04-01T03:30:50.216Z,31.00
2019-04-01T03:31:26.009Z,28.93
2019-04-01T03:32:01.547Z,28.83
2019-04-01T03:32:44.209Z,29.73
2019-04-01T03:33:14.163Z,29.67
2019-04-01T03:33:49.586Z,28.30
2019-04-01T03:34:25.519Z,34.27
2019-04-01T03:35:01.629Z,27.27
2019-04-01T03:35:37.617Z,29.60
2019-04-01T03:36:13.361Z,29.07
2019-04-01T03:36:48.791Z,31.57
2019-04-01T03:37:24.218Z,28.67
2019-04-01T03:37:59.634Z,27.10
2019-04-01T03:38:35.456Z,29.40
2019-04-01T03:39:10.881Z,33.67
2019-04-01T03:39:46.569Z,30.87
2019-04-01T03:40:22.733Z,27.77
2019-04-01T03:40:58.481Z,32.00
2019-04-01T03:41:33.893Z,30.70
2019-04-01T03:42:09.333Z,28.23
2019-04-01T03:42:44.765Z,30.77
2019-04-01T03:43:20.213Z,30.67
2019-04-01T03:43:55.974Z,28.57
2019-04-01T03:44:31.400Z,31.83
2019-04-01T03:45:07.683Z,27.67
2019-04-01T03:45:43.123Z,27.90
2019-04-01T03:46:18.829Z,30.83
2019-04-01T03:46:54.247Z,26.13
2019-04-01T03:47:30.382Z,27.70
2019-04-01T03:48:05.790Z,26.13
2019-04-01T03:48:41.279Z,26.23
2019-04-01T03:49:16.704Z,27.23
2019-04-01T03:49:52.112Z,30.93
2019-04-01T03:50:27.859Z,30.73
2019-04-01T03:51:03.624Z,29.30
2019-04-01T03:51:39.086Z,27.13
2019-04-01T03:52:14.517Z,29.53
2019-04-01T03:52:49.937Z,28.70
2019-04-01T03:53:25.381Z,26.43
2019-04-01T03:54:00.803Z,27.57
2019-04-01T03:54:36.516Z,28.37
2019-04-01T03:55:12.300Z,24.57
2019-04-01T03:55:47.721Z,28.50
2019-04-01T03:56:23.142Z,24.77
2019-04-01T03:56:58.552Z,26.27
2019-04-01T03:57:33.968Z,27.83
2019-04-01T03:58:09.749Z,27.17
2019-04-01T03:58:45.214Z,29.70
2019-04-01T03:59:20.789Z,25.57
2019-04-01T03:59:56.546Z,27.67
2019-04-01T04:00:31.963Z,26.03
2019-04-01T04:01:07.483Z,22.97
2019-04-01T04:01:42.881Z,28.63
2019-04-01T04:02:18.380Z,23.97
2019-04-01T04:02:53.793Z,26.23
2019-04-01T04:03:29.549Z,24.47
2019-04-01T04:04:05.299Z,26.87
2019-04-01T04:04:40.716Z,26.23
2019-04-01T04:05:16.146Z,24.83
2019-04-01T04:05:51.570Z,25.67
2019-04-01T04:06:27.082Z,23.40
2019-04-01T04:07:02.517Z,25.73
2019-04-01T04:07:38.032Z,23.17
2019-04-01T04:08:13.865Z,25.80
2019-04-01T04:08:49.641Z,24.23
2019-04-01T04:09:25.054Z,23.83
2019-04-01T04:10:00.536Z,26.80
2019-04-01T04:10:35.899Z,26.87
2019-04-01T04:11:11.360Z,24.50
2019-04-01T04:11:46.785Z,25.23
2019-04-01T04:12:22.202Z,23.57
2019-04-01T04:12:57.814Z,25.20
2019-04-01T04:13:33.569Z,25.47
2019-04-01T04:14:09.057Z,25.93
2019-04-01T04:14:44.965Z,24.13
2019-04-01T04:15:20.383Z,24.50
2019-04-01T04:15:56.096Z,24.53
2019-04-01T04:16:31.480Z,24.73
2019-04-01T04:17:06.894Z,26.60
2019-04-01T04:17:42.795Z,23.10
2019-04-01T04:18:18.688Z,23.60
2019-04-01T04:18:54.216Z,26.70
2019-04-01T04:19:29.738Z,23.50
2019-04-01T04:20:06.365Z,25.10
2019-04-01T04:20:41.843Z,24.40
2019-04-01T04:21:17.321Z,22.77
2019-04-01T04:21:52.774Z,24.57
2019-04-01T04:22:28.568Z,25.13
2019-04-01T04:23:03.985Z,24.87
2019-04-01T04:23:39.408Z,26.80
2019-04-01T04:24:14.908Z,25.67
2019-04-01T04:24:50.366Z,25.07
2019-04-01T04:25:25.779Z,23.40
2019-04-01T04:26:01.245Z,24.17
2019-04-01T04:26:36.716Z,22.70
2019-04-01T04:27:12.169Z,24.53
2019-04-01T04:27:47.629Z,22.57
2019-04-01T04:28:23.140Z,23.63
2019-04-01T04:28:58.613Z,24.73
2019-04-01T04:29:34.405Z,24.70
2019-04-01T04:30:10.665Z,22.53
2019-04-01T04:30:46.474Z,24.57
2019-04-01T04:31:21.905Z,23.17
2019-04-01T04:31:58.790Z,24.30
2019-04-01T04:32:34.205Z,23.83
2019-04-01T04:33:10.259Z,24.93
2019-04-01T04:33:45.827Z,25.43
2019-04-01T04:34:21.301Z,24.30
2019-04-01T04:34:57.532Z,24.67
2019-04-01T04:35:33.110Z,23.77
2019-04-01T04:36:08.569Z,23.00
2019-04-01T04:36:44.021Z,25.93
2019-04-01T04:37:19.527Z,25.03
2019-04-01T04:37:54.927Z,22.40
2019-04-01T04:38:30.349Z,25.53
2019-04-01T04:39:07.142Z,23.73
2019-04-01T04:39:42.609Z,23.33
2019-04-01T04:40:18.008Z,23.70
2019-04-01T04:40:53.697Z,24.03
2019-04-01T04:41:29.504Z,23.83
2019-04-01T04:42:04.932Z,23.43
2019-04-01T04:42:40.402Z,27.30
2019-04-01T04:43:15.817Z,21.90
2019-04-01T04:43:51.245Z,23.13
2019-04-01T04:44:26.681Z,24.00
2019-04-01T04:45:02.170Z,23.47
2019-04-01T04:45:37.584Z,26.37
2019-04-01T04:46:13.277Z,24.23
2019-04-01T04:46:48.707Z,25.43
2019-04-01T04:47:24.487Z,24.33
2019-04-01T04:47:59.901Z,25.37
2019-04-01T04:48:35.317Z,21.67
2019-04-01T04:49:10.763Z,25.57
2019-04-01T04:49:46.519Z,23.47
2019-04-01T04:50:21.946Z,21.43
2019-04-01T04:50:57.775Z,25.17
2019-04-01T04:51:33.193Z,22.27
2019-04-01T04:52:08.615Z,21.60
2019-04-01T04:52:44.061Z,21.60
2019-04-01T04:53:19.917Z,24.27
2019-04-01T04:53:56.303Z,23.73
2019-04-01T04:54:32.153Z,19.80
2019-04-01T04:55:07.785Z,24.10
2019-04-01T04:55:43.209Z,21.17
2019-04-01T04:56:18.742Z,22.27
2019-04-01T04:56:54.170Z,22.10
2019-04-01T04:57:30.038Z,24.00
2019-04-01T04:58:05.774Z,21.43
2019-04-01T04:58:41.283Z,22.70
2019-04-01T04:59:16.754Z,21.13
2019-04-01T04:59:52.202Z,25.33
2019-04-01T05:00:27.975Z,25.20
2019-04-01T05:01:03.424Z,23.33
2019-04-01T05:01:39.028Z,21.27
2019-04-01T05:02:14.474Z,24.10
2019-04-01T05:02:49.905Z,22.13
2019-04-01T05:03:25.441Z,22.90
2019-04-01T05:04:01.231Z,22.50
2019-04-01T05:04:36.819Z,23.30
2019-04-01T05:05:12.583Z,19.77
2019-04-01T05:05:48.444Z,20.93
2019-04-01T05:06:23.853Z,24.67
2019-04-01T05:06:59.289Z,22.30
2019-04-01T05:07:34.711Z,21.00
2019-04-01T05:08:10.494Z,21.33
2019-04-01T05:08:45.930Z,22.13
2019-04-01T05:09:21.370Z,22.67
2019-04-01T05:09:57.172Z,23.63
2019-04-01T05:10:32.628Z,21.07
2019-04-01T05:11:08.050Z,20.60
2019-04-01T05:11:43.591Z,20.73
2019-04-01T05:12:19.017Z,23.17
2019-04-01T05:12:54.428Z,20.80
2019-04-01T05:13:30.217Z,23.13
2019-04-01T05:14:05.652Z,22.00
2019-04-01T05:14:41.194Z,21.30
2019-04-01T05:15:16.627Z,22.67
2019-04-01T05:15:52.543Z,21.97
2019-04-01T05:16:27.957Z,22.10
2019-04-01T05:17:03.386Z,22.87
2019-04-01T05:17:38.817Z,22.80
2019-04-01T05:18:14.632Z,20.13
2019-04-01T05:18:50.066Z,20.10
2019-04-01T05:19:26.474Z,21.20
2019-04-01T05:20:01.911Z,22.50
2019-04-01T05:20:39.188Z,24.20
2019-04-01T05:21:17.448Z,22.40
2019-04-01T05:21:54.507Z,21.00
2019-04-01T05:22:30.426Z,23.23
2019-04-01T05:23:06.232Z,21.80
2019-04-01T05:23:42.285Z,18.93
2019-04-01T05:24:17.977Z,21.87
2019-04-01T05:24:53.830Z,23.20
2019-04-01T05:25:31.960Z,21.40
2019-04-01T05:26:08.723Z,22.83
2019-04-01T05:26:45.678Z,22.40
2019-04-01T05:27:24.642Z,18.17
2019-04-01T05:28:02.212Z,20.77
2019-04-01T05:28:40.831Z,21.17
2019-04-01T05:29:17.953Z,22.60
2019-04-01T05:29:55.144Z,21.07
2019-04-01T05:30:33.968Z,20.43
2019-04-01T05:31:14.490Z,21.93
2019-04-01T05:31:52.748Z,23.23
2019-04-01T05:32:28.570Z,20.23
2019-04-01T05:33:04.910Z,21.50
2019-04-01T05:33:54.842Z,22.53
2019-04-01T05:34:22.616Z,21.10
2019-04-01T05:35:01.016Z,19.23
2019-04-01T05:35:37.143Z,21.60
2019-04-01T05:36:14.210Z,18.23
2019-04-01T05:36:49.727Z,19.63
2019-04-01T05:37:25.148Z,19.43
2019-04-01T05:38:01.361Z,22.47
2019-04-01T05:38:36.870Z,22.50
2019-04-01T05:39:12.733Z,20.07
2019-04-01T05:39:48.243Z,19.07
2019-04-01T05:40:23.679Z,19.17
2019-04-01T05:40:59.098Z,20.37
2019-04-01T05:41:35.185Z,21.20
2019-04-01T05:42:10.702Z,23.33
2019-04-01T05:42:46.559Z,19.30
2019-04-01T05:43:21.975Z,19.10
2019-04-01T05:43:57.400Z,19.90
2019-04-01T05:44:32.816Z,20.77
2019-04-01T05:45:08.686Z,20.20
2019-04-01T05:45:44.132Z,18.67
2019-04-01T05:46:19.957Z,18.87
2019-04-01T05:46:55.769Z,20.43
2019-04-01T05:47:36.089Z,21.33
2019-04-01T05:48:13.635Z,20.87
2019-04-01T05:48:49.255Z,20.07
2019-04-01T05:49:24.950Z,17.07
2019-04-01T05:50:00.692Z,19.67
2019-04-01T05:50:36.325Z,16.70
2019-04-01T05:51:12.278Z,22.27
2019-04-01T05:51:47.698Z,23.00
2019-04-01T05:52:23.108Z,19.63
2019-04-01T05:52:58.638Z,18.30
2019-04-01T05:53:34.473Z,18.70
2019-04-01T05:54:10.011Z,18.47
2019-04-01T05:54:45.464Z,21.30
2019-04-01T05:55:20.901Z,21.80
2019-04-01T05:55:56.624Z,18.43
2019-04-01T05:56:32.144Z,16.33
2019-04-01T05:57:07.566Z,21.27
2019-04-01T05:57:43.113Z,21.83
2019-04-01T05:58:18.525Z,17.60
2019-04-01T05:58:54.046Z,18.73
2019-04-01T05:59:29.488Z,16.30
2019-04-01T06:00:05.653Z,18.33
2019-04-01T06:00:53.639Z,20.03
2019-04-01T06:01:34.224Z,18.80
2019-04-01T06:02:10.306Z,17.67
2019-04-01T06:02:45.875Z,19.50
2019-04-01T06:03:21.998Z,22.23
2019-04-01T06:03:57.506Z,16.57
2019-04-01T06:04:33.039Z,18.17
2019-04-01T06:05:09.493Z,17.93
2019-04-01T06:05:45.268Z,16.47
2019-04-01T06:06:20.791Z,17.73
2019-04-01T06:06:56.220Z,19.60
2019-04-01T06:07:32.403Z,17.07
2019-04-01T06:08:09.152Z,19.17
2019-04-01T06:08:45.055Z,18.57
2019-04-01T06:09:20.475Z,16.80
2019-04-01T06:09:56.031Z,18.80
2019-04-01T06:10:31.784Z,17.33
2019-04-01T06:11:07.285Z,16.60
2019-04-01T06:11:43.218Z,17.90
2019-04-01T06:12:18.853Z,14.50
2019-04-01T06:12:54.420Z,19.40
2019-04-01T06:13:29.841Z,18.20
2019-04-01T06:14:05.485Z,17.37
2019-04-01T06:14:40.924Z,19.30
2019-04-01T06:15:16.473Z,16.57
2019-04-01T06:15:51.926Z,18.40
2019-04-01T06:16:28.412Z,16.90
2019-04-01T06:17:03.774Z,17.17
2019-04-01T06:17:39.300Z,19.90
2019-04-01T06:18:15.431Z,18.07
2019-04-01T06:18:50.919Z,23.67
2019-04-01T06:19:26.572Z,17.27
2019-04-01T06:20:01.985Z,15.77
2019-04-01T06:20:37.448Z,17.33
2019-04-01T06:21:14.112Z,16.53
2019-04-01T06:21:50.144Z,17.53
2019-04-01T06:22:25.695Z,17.40
2019-04-01T06:23:01.155Z,17.50
2019-04-01T06:23:36.862Z,18.60
2019-04-01T06:24:12.316Z,15.83
2019-04-01T06:24:48.855Z,17.73
2019-04-01T06:25:24.276Z,19.23
2019-04-01T06:26:00.592Z,15.07
2019-04-01T06:26:36.007Z,13.37
2019-04-01T06:27:12.039Z,17.20
2019-04-01T06:27:47.894Z,15.63
2019-04-01T06:28:23.750Z,15.93
2019-04-01T06:28:59.173Z,16.23
2019-04-01T06:29:34.879Z,16.93
2019-04-01T06:30:10.357Z,17.73
2019-04-01T06:30:45.915Z,19.93
2019-04-01T06:31:21.404Z,18.27
2019-04-01T06:32:00.030Z,15.93
2019-04-01T06:32:35.564Z,17.63
2019-04-01T06:33:11.435Z,15.03
2019-04-01T06:33:46.970Z,16.40
2019-04-01T06:34:22.443Z,14.80
2019-04-01T06:34:58.516Z,18.17
2019-04-01T06:35:34.135Z,18.73
2019-04-01T06:36:09.903Z,18.50
2019-04-01T06:36:45.754Z,16.67
2019-04-01T06:37:21.203Z,15.07
2019-04-01T06:37:56.654Z,16.00
2019-04-01T06:38:32.077Z,14.67
2019-04-01T06:39:07.931Z,15.83
2019-04-01T06:39:43.427Z,17.83
2019-04-01T06:40:19.080Z,16.40
2019-04-01T06:40:54.910Z,19.07
2019-04-01T06:41:30.408Z,15.63
2019-04-01T06:42:07.308Z,14.70
2019-04-01T06:42:42.867Z,24.00
2019-04-01T06:43:18.304Z,16.93
2019-04-01T06:43:53.730Z,16.47
2019-04-01T06:44:29.183Z,16.77
2019-04-01T06:45:05.159Z,16.40
2019-04-01T06:45:40.608Z,16.67
2019-04-01T06:46:16.075Z,17.30
2019-04-01T06:46:52.307Z,18.07
2019-04-01T06:47:27.748Z,18.87
2019-04-01T06:48:03.177Z,17.13
2019-04-01T06:48:38.607Z,18.83
2019-04-01T06:49:14.038Z,18.00
2019-04-01T06:49:49.892Z,18.50
2019-04-01T06:50:25.307Z,19.33
2019-04-01T06:51:00.904Z,16.47
2019-04-01T06:51:36.430Z,16.57
2019-04-01T06:52:11.895Z,17.20
2019-04-01T06:52:47.319Z,18.00
2019-04-01T06:53:22.755Z,16.87
2019-04-01T06:53:58.285Z,16.00
2019-04-01T06:54:33.905Z,16.90
2019-04-01T06:55:09.345Z,15.73
2019-04-01T06:55:44.799Z,17.77
2019-04-01T06:56:20.612Z,14.07
2019-04-01T06:56:56.060Z,15.63
2019-04-01T06:57:31.474Z,16.50
2019-04-01T06:58:07.381Z,21.03
2019-04-01T06:58:43.975Z,17.63
2019-04-01T06:59:19.404Z,16.37
2019-04-01T06:59:55.168Z,17.00
2019-04-01T07:00:30.619Z,15.47
2019-04-01T07:01:06.395Z,13.23
2019-04-01T07:01:42.000Z,16.60
2019-04-01T07:02:17.890Z,15.83
2019-04-01T07:02:53.537Z,16.40
2019-04-01T07:03:29.789Z,14.23
2019-04-01T07:04:05.220Z,13.97
2019-04-01T07:04:41.017Z,16.30
2019-04-01T07:05:16.645Z,15.87
2019-04-01T07:05:53.042Z,16.80
2019-04-01T07:06:28.486Z,16.23
2019-04-01T07:07:17.835Z,16.27
2019-04-01T07:07:41.615Z,17.40
2019-04-01T07:08:17.134Z,19.50
2019-04-01T07:08:52.851Z,17.97
2019-04-01T07:09:28.498Z,17.40
2019-04-01T07:10:04.139Z,19.07
2019-04-01T07:10:39.898Z,15.37
2019-04-01T07:11:15.349Z,14.13
2019-04-01T07:11:50.769Z,13.13
2019-04-01T07:12:26.612Z,17.93
2019-04-01T07:13:02.123Z,15.63
2019-04-01T07:13:40.030Z,15.00
2019-04-01T07:14:15.197Z,15.30
2019-04-01T07:14:50.836Z,14.27
2019-04-01T07:15:26.266Z,15.03
2019-04-01T07:16:14.762Z,16.27
2019-04-01T07:16:40.162Z,14.47
2019-04-01T07:17:15.999Z,13.40
2019-04-01T07:17:51.853Z,18.80
2019-04-01T07:18:27.913Z,15.10
2019-04-01T07:19:04.045Z,18.33
2019-04-01T07:19:39.530Z,18.07
2019-04-01T07:20:15.252Z,13.80
2019-04-01T07:20:50.679Z,17.97
2019-04-01T07:21:26.131Z,16.60
2019-04-01T07:22:02.170Z,16.20
2019-04-01T07:22:38.003Z,13.37
2019-04-01T07:23:13.847Z,18.40
2019-04-01T07:23:49.564Z,20.07
2019-04-01T07:24:24.989Z,20.13
2019-04-01T07:25:00.803Z,15.43
2019-04-01T07:25:36.532Z,14.73
2019-04-01T07:26:12.064Z,15.23
2019-04-01T07:26:47.559Z,13.80
2019-04-01T07:27:23.394Z,14.17
2019-04-01T07:27:58.826Z,15.73
2019-04-01T07:28:34.587Z,15.83
2019-04-01T07:29:10.016Z,17.00
2019-04-01T07:29:46.119Z,18.60
2019-04-01T07:30:21.737Z,16.33
2019-04-01T07:30:57.168Z,15.17
2019-04-01T07:31:32.632Z,16.60
2019-04-01T07:32:08.059Z,16.00
2019-04-01T07:32:43.503Z,16.87
2019-04-01T07:33:19.265Z,17.67
2019-04-01T07:33:55.319Z,14.40
2019-04-01T07:34:30.756Z,16.73
2019-04-01T07:35:06.401Z,14.67
2019-04-01T07:35:41.959Z,17.13
2019-04-01T07:36:17.383Z,18.60
2019-04-01T07:36:52.943Z,17.13
2019-04-01T07:37:28.770Z,20.50
2019-04-01T07:38:04.396Z,16.40
2019-04-01T07:38:40.192Z,16.60
2019-04-01T07:39:16.004Z,19.33
2019-04-01T07:39:51.438Z,16.13
2019-04-01T07:40:27.146Z,18.10